sensor_id;sensor_type;location;lat;lon;timestamp;P1;durP1;ratioP1;P2;durP2;ratioP2
21183;SDS011;18176;49.502;11.754;2024-01-30T00:00:52;37.60;;;16.60;;
21183;SDS011;18176;49.502;11.754;2024-01-30T00:05:13;31.33;;;15.37;;
21183;SDS011;18176;49.502;11.754;2024-01-30T00:09:34;28.03;;;14.70;;
21183;SDS011;18176;49.502;11.754;2024-01-30T00:13:57;22.87;;;13.10;;
21183;SDS011;18176;49.502;11.754;2024-01-30T00:18:18;26.23;;;13.60;;
21183;SDS011;18176;49.502;11.754;2024-01-30T00:22:38;30.43;;;15.00;;
21183;SDS011;18176;49.502;11.754;2024-01-30T00:26:59;27.67;;;14.30;;
21183;SDS011;18176;49.502;11.754;2024-01-30T00:31:22;25.80;;;13.70;;
21183;SDS011;18176;49.502;11.754;2024-01-30T00:35:42;31.40;;;14.10;;
21183;SDS011;18176;49.502;11.754;2024-01-30T00:40:03;32.47;;;15.33;;
21183;SDS011;18176;49.502;11.754;2024-01-30T00:44:27;29.83;;;14.83;;
21183;SDS011;18176;49.502;11.754;2024-01-30T00:48:50;28.27;;;14.97;;
21183;SDS011;18176;49.502;11.754;2024-01-30T00:53:11;30.63;;;14.10;;
21183;SDS011;18176;49.502;11.754;2024-01-30T00:57:32;36.60;;;14.83;;
21183;SDS011;18176;49.502;11.754;2024-01-30T01:01:52;33.53;;;15.70;;
21183;SDS011;18176;49.502;11.754;2024-01-30T01:06:16;34.20;;;15.10;;
21183;SDS011;18176;49.502;11.754;2024-01-30T01:10:36;32.63;;;14.63;;
21183;SDS011;18176;49.502;11.754;2024-01-30T01:14:57;33.20;;;14.77;;
21183;SDS011;18176;49.502;11.754;2024-01-30T01:19:19;27.33;;;14.20;;
21183;SDS011;18176;49.502;11.754;2024-01-30T01:23:42;29.77;;;13.03;;
21183;SDS011;18176;49.502;11.754;2024-01-30T01:28:03;26.57;;;13.07;;
21183;SDS011;18176;49.502;11.754;2024-01-30T01:32:25;35.63;;;14.73;;
21183;SDS011;18176;49.502;11.754;2024-01-30T01:36:46;27.23;;;12.80;;
21183;SDS011;18176;49.502;11.754;2024-01-30T01:41:09;28.57;;;13.47;;
21183;SDS011;18176;49.502;11.754;2024-01-30T01:45:30;31.50;;;14.30;;
21183;SDS011;18176;49.502;11.754;2024-01-30T01:49:50;25.63;;;13.40;;
21183;SDS011;18176;49.502;11.754;2024-01-30T01:54:12;26.80;;;13.07;;
21183;SDS011;18176;49.502;11.754;2024-01-30T01:58:36;26.87;;;12.93;;
21183;SDS011;18176;49.502;11.754;2024-01-30T02:02:58;29.23;;;12.53;;
21183;SDS011;18176;49.502;11.754;2024-01-30T02:07:20;25.77;;;12.87;;
21183;SDS011;18176;49.502;11.754;2024-01-30T02:11:41;27.10;;;12.10;;
21183;SDS011;18176;49.502;11.754;2024-01-30T02:16:05;25.67;;;12.03;;
21183;SDS011;18176;49.502;11.754;2024-01-30T02:20:26;26.03;;;11.90;;
21183;SDS011;18176;49.502;11.754;2024-01-30T02:24:53;27.27;;;13.07;;
21183;SDS011;18176;49.502;11.754;2024-01-30T02:29:13;26.47;;;12.50;;
21183;SDS011;18176;49.502;11.754;2024-01-30T02:33:34;24.53;;;12.23;;
21183;SDS011;18176;49.502;11.754;2024-01-30T02:37:55;26.07;;;13.13;;
21183;SDS011;18176;49.502;11.754;2024-01-30T02:42:18;27.20;;;13.07;;
21183;SDS011;18176;49.502;11.754;2024-01-30T02:46:39;30.23;;;13.87;;
21183;SDS011;18176;49.502;11.754;2024-01-30T02:50:59;30.90;;;14.30;;
21183;SDS011;18176;49.502;11.754;2024-01-30T02:55:20;28.53;;;13.40;;
21183;SDS011;18176;49.502;11.754;2024-01-30T02:59:43;30.50;;;13.30;;
21183;SDS011;18176;49.502;11.754;2024-01-30T03:04:04;25.07;;;12.50;;
21183;SDS011;18176;49.502;11.754;2024-01-30T03:08:24;27.90;;;12.83;;
21183;SDS011;18176;49.502;11.754;2024-01-30T03:12:45;28.07;;;12.97;;
21183;SDS011;18176;49.502;11.754;2024-01-30T03:17:08;24.47;;;12.83;;
21183;SDS011;18176;49.502;11.754;2024-01-30T03:21:29;24.50;;;12.30;;
21183;SDS011;18176;49.502;11.754;2024-01-30T03:25:50;23.50;;;12.00;;
21183;SDS011;18176;49.502;11.754;2024-01-30T03:30:10;24.40;;;12.87;;
21183;SDS011;18176;49.502;11.754;2024-01-30T03:34:33;24.53;;;12.47;;
21183;SDS011;18176;49.502;11.754;2024-01-30T03:38:54;27.13;;;12.77;;
21183;SDS011;18176;49.502;11.754;2024-01-30T03:43:15;23.53;;;11.93;;
21183;SDS011;18176;49.502;11.754;2024-01-30T03:47:35;22.30;;;11.93;;
21183;SDS011;18176;49.502;11.754;2024-01-30T03:51:59;30.60;;;12.73;;
21183;SDS011;18176;49.502;11.754;2024-01-30T03:56:19;27.33;;;13.97;;
21183;SDS011;18176;49.502;11.754;2024-01-30T04:00:44;27.10;;;13.30;;
21183;SDS011;18176;49.502;11.754;2024-01-30T04:05:05;26.63;;;14.50;;
21183;SDS011;18176;49.502;11.754;2024-01-30T04:09:30;32.70;;;14.67;;
21183;SDS011;18176;49.502;11.754;2024-01-30T04:13:50;32.00;;;15.57;;
21183;SDS011;18176;49.502;11.754;2024-01-30T04:18:11;35.63;;;16.53;;
21183;SDS011;18176;49.502;11.754;2024-01-30T04:22:32;33.40;;;15.77;;
21183;SDS011;18176;49.502;11.754;2024-01-30T04:26:55;29.47;;;14.53;;
21183;SDS011;18176;49.502;11.754;2024-01-30T04:31:16;34.40;;;16.37;;
21183;SDS011;18176;49.502;11.754;2024-01-30T04:35:36;38.77;;;17.07;;
21183;SDS011;18176;49.502;11.754;2024-01-30T04:39:57;40.87;;;17.90;;
21183;SDS011;18176;49.502;11.754;2024-01-30T04:44:21;35.30;;;16.00;;
21183;SDS011;18176;49.502;11.754;2024-01-30T04:48:41;33.50;;;16.20;;
21183;SDS011;18176;49.502;11.754;2024-01-30T04:53:02;36.80;;;16.70;;
21183;SDS011;18176;49.502;11.754;2024-01-30T04:57:24;32.13;;;16.33;;
21183;SDS011;18176;49.502;11.754;2024-01-30T05:01:48;35.33;;;17.07;;
21183;SDS011;18176;49.502;11.754;2024-01-30T05:06:08;36.73;;;17.40;;
21183;SDS011;18176;49.502;11.754;2024-01-30T05:10:29;35.43;;;17.20;;
21183;SDS011;18176;49.502;11.754;2024-01-30T05:14:50;37.70;;;19.10;;
21183;SDS011;18176;49.502;11.754;2024-01-30T05:19:13;33.90;;;18.07;;
21183;SDS011;18176;49.502;11.754;2024-01-30T05:23:34;39.10;;;18.10;;
21183;SDS011;18176;49.502;11.754;2024-01-30T05:27:54;37.17;;;18.13;;
21183;SDS011;18176;49.502;11.754;2024-01-30T05:32:15;41.43;;;20.00;;
21183;SDS011;18176;49.502;11.754;2024-01-30T05:36:38;37.00;;;18.77;;
21183;SDS011;18176;49.502;11.754;2024-01-30T05:40:59;32.03;;;18.03;;
21183;SDS011;18176;49.502;11.754;2024-01-30T05:45:20;38.23;;;18.33;;
21183;SDS011;18176;49.502;11.754;2024-01-30T05:49:40;41.20;;;20.77;;
21183;SDS011;18176;49.502;11.754;2024-01-30T05:54:04;45.30;;;22.33;;
21183;SDS011;18176;49.502;11.754;2024-01-30T05:58:24;43.03;;;21.90;;
21183;SDS011;18176;49.502;11.754;2024-01-30T06:02:45;39.40;;;20.50;;
21183;SDS011;18176;49.502;11.754;2024-01-30T06:07:06;38.93;;;20.83;;
21183;SDS011;18176;49.502;11.754;2024-01-30T06:11:29;39.07;;;20.80;;
21183;SDS011;18176;49.502;11.754;2024-01-30T06:15:50;38.77;;;19.53;;
21183;SDS011;18176;49.502;11.754;2024-01-30T06:20:11;38.10;;;19.90;;
21183;SDS011;18176;49.502;11.754;2024-01-30T06:24:32;37.40;;;19.30;;
21183;SDS011;18176;49.502;11.754;2024-01-30T06:28:55;41.10;;;20.33;;
21183;SDS011;18176;49.502;11.754;2024-01-30T06:33:16;42.23;;;19.70;;
21183;SDS011;18176;49.502;11.754;2024-01-30T06:37:37;37.93;;;20.27;;
21183;SDS011;18176;49.502;11.754;2024-01-30T06:41:57;39.13;;;19.13;;
21183;SDS011;18176;49.502;11.754;2024-01-30T06:46:21;40.23;;;20.17;;
21183;SDS011;18176;49.502;11.754;2024-01-30T06:50:41;48.23;;;22.33;;
21183;SDS011;18176;49.502;11.754;2024-01-30T06:55:02;50.40;;;23.90;;
21183;SDS011;18176;49.502;11.754;2024-01-30T06:59:23;49.37;;;24.30;;
21183;SDS011;18176;49.502;11.754;2024-01-30T07:03:47;43.90;;;23.37;;
21183;SDS011;18176;49.502;11.754;2024-01-30T07:08:08;46.20;;;23.13;;
21183;SDS011;18176;49.502;11.754;2024-01-30T07:12:30;50.60;;;24.80;;
21183;SDS011;18176;49.502;11.754;2024-01-30T07:16:52;60.20;;;26.47;;
21183;SDS011;18176;49.502;11.754;2024-01-30T07:21:16;49.60;;;24.10;;
21183;SDS011;18176;49.502;11.754;2024-01-30T07:25:38;55.60;;;25.50;;
21183;SDS011;18176;49.502;11.754;2024-01-30T07:30:01;48.30;;;24.67;;
21183;SDS011;18176;49.502;11.754;2024-01-30T07:34:23;47.23;;;23.90;;
21183;SDS011;18176;49.502;11.754;2024-01-30T07:38:47;44.03;;;23.47;;
21183;SDS011;18176;49.502;11.754;2024-01-30T07:43:09;45.23;;;22.83;;
21183;SDS011;18176;49.502;11.754;2024-01-30T07:47:30;45.17;;;22.57;;
21183;SDS011;18176;49.502;11.754;2024-01-30T07:51:51;42.03;;;22.77;;
21183;SDS011;18176;49.502;11.754;2024-01-30T07:56:14;47.87;;;23.40;;
21183;SDS011;18176;49.502;11.754;2024-01-30T08:00:35;42.40;;;23.17;;
21183;SDS011;18176;49.502;11.754;2024-01-30T08:04:56;46.90;;;23.83;;
21183;SDS011;18176;49.502;11.754;2024-01-30T08:09:17;40.67;;;23.30;;
21183;SDS011;18176;49.502;11.754;2024-01-30T08:13:40;42.63;;;22.60;;
21183;SDS011;18176;49.502;11.754;2024-01-30T08:18:01;40.60;;;22.63;;
21183;SDS011;18176;49.502;11.754;2024-01-30T08:22:25;39.20;;;23.50;;
21183;SDS011;18176;49.502;11.754;2024-01-30T08:26:49;39.53;;;22.47;;
21183;SDS011;18176;49.502;11.754;2024-01-30T08:31:12;42.90;;;23.87;;
21183;SDS011;18176;49.502;11.754;2024-01-30T08:35:33;37.40;;;21.67;;
21183;SDS011;18176;49.502;11.754;2024-01-30T08:39:55;35.33;;;21.50;;
21183;SDS011;18176;49.502;11.754;2024-01-30T08:44:16;36.23;;;21.10;;
21183;SDS011;18176;49.502;11.754;2024-01-30T08:48:41;40.93;;;22.97;;
21183;SDS011;18176;49.502;11.754;2024-01-30T08:53:02;35.43;;;20.53;;
21183;SDS011;18176;49.502;11.754;2024-01-30T08:57:23;36.53;;;22.07;;
21183;SDS011;18176;49.502;11.754;2024-01-30T09:01:45;37.07;;;20.73;;
21183;SDS011;18176;49.502;11.754;2024-01-30T09:06:25;35.37;;;20.50;;
21183;SDS011;18176;49.502;11.754;2024-01-30T09:10:46;31.77;;;19.60;;
21183;SDS011;18176;49.502;11.754;2024-01-30T09:15:07;36.67;;;21.40;;
21183;SDS011;18176;49.502;11.754;2024-01-30T09:19:29;33.80;;;19.63;;
21183;SDS011;18176;49.502;11.754;2024-01-30T09:23:54;33.73;;;18.50;;
21183;SDS011;18176;49.502;11.754;2024-01-30T09:28:21;33.43;;;18.13;;
21183;SDS011;18176;49.502;11.754;2024-01-30T09:32:43;31.07;;;18.50;;
21183;SDS011;18176;49.502;11.754;2024-01-30T09:37:04;32.10;;;18.80;;
21183;SDS011;18176;49.502;11.754;2024-01-30T09:41:27;29.20;;;17.63;;
21183;SDS011;18176;49.502;11.754;2024-01-30T09:45:52;30.83;;;19.40;;
21183;SDS011;18176;49.502;11.754;2024-01-30T09:50:15;27.43;;;18.03;;
21183;SDS011;18176;49.502;11.754;2024-01-30T09:54:38;31.43;;;19.27;;
21183;SDS011;18176;49.502;11.754;2024-01-30T09:59:03;31.60;;;19.30;;
21183;SDS011;18176;49.502;11.754;2024-01-30T10:03:24;34.93;;;19.47;;
21183;SDS011;18176;49.502;11.754;2024-01-30T10:07:52;31.07;;;18.03;;
21183;SDS011;18176;49.502;11.754;2024-01-30T10:12:15;30.70;;;19.00;;
21183;SDS011;18176;49.502;11.754;2024-01-30T10:16:38;29.00;;;19.40;;
21183;SDS011;18176;49.502;11.754;2024-01-30T10:20:59;28.93;;;18.20;;
21183;SDS011;18176;49.502;11.754;2024-01-30T10:25:21;29.83;;;18.20;;
21183;SDS011;18176;49.502;11.754;2024-01-30T10:29:42;29.63;;;17.50;;
21183;SDS011;18176;49.502;11.754;2024-01-30T10:34:08;24.83;;;17.23;;
21183;SDS011;18176;49.502;11.754;2024-01-30T10:38:39;27.70;;;18.57;;
21183;SDS011;18176;49.502;11.754;2024-01-30T10:43:03;32.57;;;20.73;;
21183;SDS011;18176;49.502;11.754;2024-01-30T10:47:29;28.90;;;19.13;;
21183;SDS011;18176;49.502;11.754;2024-01-30T10:51:52;25.33;;;17.50;;
21183;SDS011;18176;49.502;11.754;2024-01-30T10:56:16;27.77;;;18.27;;
21183;SDS011;18176;49.502;11.754;2024-01-30T11:00:41;26.27;;;17.50;;
21183;SDS011;18176;49.502;11.754;2024-01-30T11:05:04;25.47;;;17.87;;
21183;SDS011;18176;49.502;11.754;2024-01-30T11:09:28;27.83;;;17.60;;
21183;SDS011;18176;49.502;11.754;2024-01-30T11:13:49;24.37;;;16.37;;
21183;SDS011;18176;49.502;11.754;2024-01-30T11:18:10;26.60;;;18.13;;
21183;SDS011;18176;49.502;11.754;2024-01-30T11:22:31;29.80;;;19.40;;
21183;SDS011;18176;49.502;11.754;2024-01-30T11:26:58;26.40;;;17.73;;
21183;SDS011;18176;49.502;11.754;2024-01-30T11:31:19;27.53;;;17.40;;
21183;SDS011;18176;49.502;11.754;2024-01-30T11:35:40;26.47;;;17.47;;
21183;SDS011;18176;49.502;11.754;2024-01-30T11:40:04;26.57;;;17.10;;
21183;SDS011;18176;49.502;11.754;2024-01-30T11:44:29;26.07;;;17.93;;
21183;SDS011;18176;49.502;11.754;2024-01-30T11:48:52;28.37;;;18.17;;
21183;SDS011;18176;49.502;11.754;2024-01-30T11:53:15;26.13;;;18.33;;
21183;SDS011;18176;49.502;11.754;2024-01-30T11:57:36;29.67;;;19.13;;
21183;SDS011;18176;49.502;11.754;2024-01-30T12:01:59;28.30;;;18.77;;
21183;SDS011;18176;49.502;11.754;2024-01-30T12:06:21;26.00;;;17.40;;
21183;SDS011;18176;49.502;11.754;2024-01-30T12:10:42;26.00;;;17.33;;
21183;SDS011;18176;49.502;11.754;2024-01-30T12:15:03;40.93;;;25.83;;
21183;SDS011;18176;49.502;11.754;2024-01-30T12:19:27;28.48;;;18.77;;
21183;SDS011;18176;49.502;11.754;2024-01-30T12:23:48;28.90;;;17.47;;
21183;SDS011;18176;49.502;11.754;2024-01-30T12:28:09;23.87;;;17.23;;
21183;SDS011;18176;49.502;11.754;2024-01-30T12:32:34;28.93;;;19.07;;
21183;SDS011;18176;49.502;11.754;2024-01-30T12:36:58;27.97;;;18.93;;
21183;SDS011;18176;49.502;11.754;2024-01-30T12:41:19;30.37;;;18.23;;
21183;SDS011;18176;49.502;11.754;2024-01-30T12:45:45;29.67;;;17.17;;
21183;SDS011;18176;49.502;11.754;2024-01-30T12:50:06;27.70;;;17.10;;
21183;SDS011;18176;49.502;11.754;2024-01-30T12:54:31;25.63;;;16.67;;
21183;SDS011;18176;49.502;11.754;2024-01-30T12:58:52;24.87;;;16.23;;
21183;SDS011;18176;49.502;11.754;2024-01-30T13:03:13;23.77;;;15.53;;
21183;SDS011;18176;49.502;11.754;2024-01-30T13:07:34;24.83;;;15.77;;
21183;SDS011;18176;49.502;11.754;2024-01-30T13:11:57;27.53;;;16.20;;
21183;SDS011;18176;49.502;11.754;2024-01-30T13:16:18;24.77;;;16.57;;
21183;SDS011;18176;49.502;11.754;2024-01-30T13:20:38;28.23;;;16.90;;
21183;SDS011;18176;49.502;11.754;2024-01-30T13:24:59;23.83;;;16.27;;
21183;SDS011;18176;49.502;11.754;2024-01-30T13:29:22;27.40;;;15.90;;
21183;SDS011;18176;49.502;11.754;2024-01-30T13:33:43;24.53;;;15.70;;
21183;SDS011;18176;49.502;11.754;2024-01-30T13:38:06;25.97;;;16.37;;
21183;SDS011;18176;49.502;11.754;2024-01-30T13:42:27;24.13;;;15.27;;
21183;SDS011;18176;49.502;11.754;2024-01-30T13:46:52;25.97;;;14.53;;
21183;SDS011;18176;49.502;11.754;2024-01-30T13:51:13;21.30;;;15.33;;
21183;SDS011;18176;49.502;11.754;2024-01-30T13:55:34;24.30;;;15.33;;
21183;SDS011;18176;49.502;11.754;2024-01-30T13:59:55;25.93;;;16.10;;
21183;SDS011;18176;49.502;11.754;2024-01-30T14:04:18;27.53;;;16.87;;
21183;SDS011;18176;49.502;11.754;2024-01-30T14:08:39;25.60;;;16.40;;
21183;SDS011;18176;49.502;11.754;2024-01-30T14:13:09;27.50;;;17.00;;
21183;SDS011;18176;49.502;11.754;2024-01-30T14:17:30;28.63;;;16.27;;
21183;SDS011;18176;49.502;11.754;2024-01-30T14:21:53;31.93;;;17.43;;
21183;SDS011;18176;49.502;11.754;2024-01-30T14:26:14;27.47;;;18.20;;
21183;SDS011;18176;49.502;11.754;2024-01-30T14:30:35;29.93;;;17.50;;
21183;SDS011;18176;49.502;11.754;2024-01-30T14:34:55;35.97;;;22.07;;
21183;SDS011;18176;49.502;11.754;2024-01-30T14:39:19;33.90;;;19.23;;
21183;SDS011;18176;49.502;11.754;2024-01-30T14:43:40;39.07;;;23.10;;
21183;SDS011;18176;49.502;11.754;2024-01-30T14:48:01;30.83;;;18.93;;
21183;SDS011;18176;49.502;11.754;2024-01-30T14:52:22;29.90;;;17.00;;
21183;SDS011;18176;49.502;11.754;2024-01-30T14:56:46;31.03;;;16.67;;
21183;SDS011;18176;49.502;11.754;2024-01-30T15:01:07;31.20;;;17.23;;
21183;SDS011;18176;49.502;11.754;2024-01-30T15:05:28;33.50;;;18.33;;
21183;SDS011;18176;49.502;11.754;2024-01-30T15:09:49;37.63;;;20.40;;
21183;SDS011;18176;49.502;11.754;2024-01-30T15:14:12;34.27;;;19.77;;
21183;SDS011;18176;49.502;11.754;2024-01-30T15:18:33;36.60;;;20.10;;
21183;SDS011;18176;49.502;11.754;2024-01-30T15:22:54;34.50;;;19.33;;
21183;SDS011;18176;49.502;11.754;2024-01-30T15:27:14;34.70;;;19.30;;
21183;SDS011;18176;49.502;11.754;2024-01-30T15:31:39;39.30;;;20.83;;
21183;SDS011;18176;49.502;11.754;2024-01-30T15:35:59;29.63;;;17.83;;
21183;SDS011;18176;49.502;11.754;2024-01-30T15:40:21;33.87;;;18.97;;
21183;SDS011;18176;49.502;11.754;2024-01-30T15:44:41;36.53;;;19.87;;
21183;SDS011;18176;49.502;11.754;2024-01-30T15:49:04;33.90;;;20.73;;
21183;SDS011;18176;49.502;11.754;2024-01-30T15:53:25;39.53;;;22.40;;
21183;SDS011;18176;49.502;11.754;2024-01-30T15:57:47;36.60;;;21.00;;
21183;SDS011;18176;49.502;11.754;2024-01-30T16:02:08;34.63;;;20.10;;
21183;SDS011;18176;49.502;11.754;2024-01-30T16:06:34;32.43;;;18.67;;
21183;SDS011;18176;49.502;11.754;2024-01-30T16:10:55;26.37;;;16.70;;
21183;SDS011;18176;49.502;11.754;2024-01-30T16:15:15;27.17;;;17.17;;
21183;SDS011;18176;49.502;11.754;2024-01-30T16:19:37;38.60;;;22.40;;
21183;SDS011;18176;49.502;11.754;2024-01-30T16:24:01;39.33;;;22.83;;
21183;SDS011;18176;49.502;11.754;2024-01-30T16:28:25;34.77;;;22.53;;
21183;SDS011;18176;49.502;11.754;2024-01-30T16:32:45;39.77;;;22.27;;
21183;SDS011;18176;49.502;11.754;2024-01-30T16:37:08;43.07;;;24.50;;
21183;SDS011;18176;49.502;11.754;2024-01-30T16:41:31;47.60;;;26.23;;
21183;SDS011;18176;49.502;11.754;2024-01-30T16:45:52;44.80;;;25.10;;
21183;SDS011;18176;49.502;11.754;2024-01-30T16:50:14;39.47;;;24.77;;
21183;SDS011;18176;49.502;11.754;2024-01-30T16:54:35;39.97;;;23.73;;
21183;SDS011;18176;49.502;11.754;2024-01-30T16:58:58;44.70;;;26.00;;
21183;SDS011;18176;49.502;11.754;2024-01-30T17:03:19;39.80;;;22.77;;
21183;SDS011;18176;49.502;11.754;2024-01-30T17:07:40;40.90;;;23.33;;
21183;SDS011;18176;49.502;11.754;2024-01-30T17:12:01;49.37;;;27.37;;
21183;SDS011;18176;49.502;11.754;2024-01-30T17:16:25;44.60;;;26.47;;
21183;SDS011;18176;49.502;11.754;2024-01-30T17:20:45;51.50;;;30.43;;
21183;SDS011;18176;49.502;11.754;2024-01-30T17:25:06;62.30;;;36.43;;
21183;SDS011;18176;49.502;11.754;2024-01-30T17:29:28;65.27;;;37.60;;
21183;SDS011;18176;49.502;11.754;2024-01-30T17:33:51;85.93;;;38.27;;
21183;SDS011;18176;49.502;11.754;2024-01-30T17:38:12;69.77;;;34.50;;
21183;SDS011;18176;49.502;11.754;2024-01-30T17:42:35;84.50;;;44.03;;
21183;SDS011;18176;49.502;11.754;2024-01-30T17:46:56;81.93;;;42.57;;
21183;SDS011;18176;49.502;11.754;2024-01-30T17:51:19;78.67;;;39.53;;
21183;SDS011;18176;49.502;11.754;2024-01-30T17:55:40;52.33;;;29.30;;
21183;SDS011;18176;49.502;11.754;2024-01-30T18:00:01;59.17;;;33.33;;
21183;SDS011;18176;49.502;11.754;2024-01-30T18:04:23;55.50;;;30.67;;
21183;SDS011;18176;49.502;11.754;2024-01-30T18:08:47;53.27;;;28.77;;
21183;SDS011;18176;49.502;11.754;2024-01-30T18:13:07;57.07;;;30.93;;
21183;SDS011;18176;49.502;11.754;2024-01-30T18:17:30;52.90;;;30.77;;
21183;SDS011;18176;49.502;11.754;2024-01-30T18:21:51;52.23;;;30.67;;
21183;SDS011;18176;49.502;11.754;2024-01-30T18:26:14;58.43;;;32.23;;
21183;SDS011;18176;49.502;11.754;2024-01-30T18:30:35;54.83;;;31.77;;
21183;SDS011;18176;49.502;11.754;2024-01-30T18:34:56;52.53;;;30.53;;
21183;SDS011;18176;49.502;11.754;2024-01-30T18:39:18;53.03;;;30.33;;
21183;SDS011;18176;49.502;11.754;2024-01-30T18:43:41;58.17;;;34.23;;
21183;SDS011;18176;49.502;11.754;2024-01-30T18:48:02;49.93;;;29.47;;
21183;SDS011;18176;49.502;11.754;2024-01-30T18:52:24;54.77;;;31.93;;
21183;SDS011;18176;49.502;11.754;2024-01-30T18:56:45;55.27;;;32.63;;
21183;SDS011;18176;49.502;11.754;2024-01-30T19:01:11;58.30;;;30.67;;
21183;SDS011;18176;49.502;11.754;2024-01-30T19:05:33;52.27;;;29.00;;
21183;SDS011;18176;49.502;11.754;2024-01-30T19:09:53;57.67;;;33.43;;
21183;SDS011;18176;49.502;11.754;2024-01-30T19:14:14;62.27;;;36.27;;
21183;SDS011;18176;49.502;11.754;2024-01-30T19:18:38;57.60;;;32.27;;
21183;SDS011;18176;49.502;11.754;2024-01-30T19:23:00;61.97;;;35.40;;
21183;SDS011;18176;49.502;11.754;2024-01-30T19:27:20;66.27;;;37.60;;
21183;SDS011;18176;49.502;11.754;2024-01-30T19:31:41;77.30;;;43.00;;
21183;SDS011;18176;49.502;11.754;2024-01-30T19:36:07;73.00;;;40.43;;
21183;SDS011;18176;49.502;11.754;2024-01-30T19:40:29;66.63;;;37.47;;
21183;SDS011;18176;49.502;11.754;2024-01-30T19:44:50;64.70;;;36.47;;
21183;SDS011;18176;49.502;11.754;2024-01-30T19:49:11;60.90;;;35.27;;
21183;SDS011;18176;49.502;11.754;2024-01-30T19:53:36;63.80;;;37.10;;
21183;SDS011;18176;49.502;11.754;2024-01-30T19:57:57;62.80;;;35.53;;
21183;SDS011;18176;49.502;11.754;2024-01-30T20:02:20;64.97;;;36.70;;
21183;SDS011;18176;49.502;11.754;2024-01-30T20:06:42;54.53;;;30.87;;
21183;SDS011;18176;49.502;11.754;2024-01-30T20:11:13;73.30;;;40.70;;
21183;SDS011;18176;49.502;11.754;2024-01-30T20:15:34;72.07;;;38.53;;
21183;SDS011;18176;49.502;11.754;2024-01-30T20:19:55;66.97;;;36.60;;
21183;SDS011;18176;49.502;11.754;2024-01-30T20:24:16;58.37;;;33.53;;
21183;SDS011;18176;49.502;11.754;2024-01-30T20:28:40;52.53;;;31.60;;
21183;SDS011;18176;49.502;11.754;2024-01-30T20:33:00;51.80;;;30.63;;
21183;SDS011;18176;49.502;11.754;2024-01-30T20:37:21;50.60;;;30.57;;
21183;SDS011;18176;49.502;11.754;2024-01-30T20:41:42;51.57;;;29.93;;
21183;SDS011;18176;49.502;11.754;2024-01-30T20:46:07;48.90;;;28.63;;
21183;SDS011;18176;49.502;11.754;2024-01-30T20:50:30;51.63;;;28.80;;
21183;SDS011;18176;49.502;11.754;2024-01-30T20:54:50;50.23;;;29.43;;
21183;SDS011;18176;49.502;11.754;2024-01-30T20:59:12;51.77;;;29.53;;
21183;SDS011;18176;49.502;11.754;2024-01-30T21:03:36;53.70;;;31.30;;
21183;SDS011;18176;49.502;11.754;2024-01-30T21:07:57;51.27;;;29.70;;
21183;SDS011;18176;49.502;11.754;2024-01-30T21:12:18;52.10;;;29.23;;
21183;SDS011;18176;49.502;11.754;2024-01-30T21:16:39;50.07;;;29.70;;
21183;SDS011;18176;49.502;11.754;2024-01-30T21:21:03;52.83;;;29.50;;
21183;SDS011;18176;49.502;11.754;2024-01-30T21:25:24;52.33;;;31.13;;
21183;SDS011;18176;49.502;11.754;2024-01-30T21:29:45;50.27;;;28.73;;
21183;SDS011;18176;49.502;11.754;2024-01-30T21:34:06;55.87;;;30.93;;
21183;SDS011;18176;49.502;11.754;2024-01-30T21:38:30;49.83;;;28.60;;
21183;SDS011;18176;49.502;11.754;2024-01-30T21:42:52;51.67;;;28.50;;
21183;SDS011;18176;49.502;11.754;2024-01-30T21:47:13;51.73;;;29.60;;
21183;SDS011;18176;49.502;11.754;2024-01-30T21:51:33;48.27;;;28.27;;
21183;SDS011;18176;49.502;11.754;2024-01-30T21:55:56;45.30;;;26.70;;
21183;SDS011;18176;49.502;11.754;2024-01-30T22:00:17;50.87;;;29.17;;
21183;SDS011;18176;49.502;11.754;2024-01-30T22:04:38;43.17;;;26.23;;
21183;SDS011;18176;49.502;11.754;2024-01-30T22:09:04;39.40;;;24.97;;
21183;SDS011;18176;49.502;11.754;2024-01-30T22:13:27;51.70;;;27.90;;
21183;SDS011;18176;49.502;11.754;2024-01-30T22:17:48;42.60;;;26.00;;
21183;SDS011;18176;49.502;11.754;2024-01-30T22:22:08;41.13;;;24.37;;
21183;SDS011;18176;49.502;11.754;2024-01-30T22:26:29;47.90;;;26.83;;
21183;SDS011;18176;49.502;11.754;2024-01-30T22:30:52;44.50;;;25.80;;
21183;SDS011;18176;49.502;11.754;2024-01-30T22:35:13;48.67;;;27.93;;
21183;SDS011;18176;49.502;11.754;2024-01-30T22:39:34;52.83;;;28.07;;
21183;SDS011;18176;49.502;11.754;2024-01-30T22:43:55;48.30;;;25.70;;
21183;SDS011;18176;49.502;11.754;2024-01-30T22:48:18;55.20;;;29.40;;
21183;SDS011;18176;49.502;11.754;2024-01-30T22:52:39;51.17;;;27.83;;
21183;SDS011;18176;49.502;11.754;2024-01-30T22:56:59;44.43;;;25.33;;
21183;SDS011;18176;49.502;11.754;2024-01-30T23:01:20;42.13;;;24.87;;
21183;SDS011;18176;49.502;11.754;2024-01-30T23:05:43;34.87;;;22.30;;
21183;SDS011;18176;49.502;11.754;2024-01-30T23:10:05;37.20;;;22.23;;
21183;SDS011;18176;49.502;11.754;2024-01-30T23:14:27;33.77;;;21.80;;
21183;SDS011;18176;49.502;11.754;2024-01-30T23:18:48;36.73;;;22.57;;
21183;SDS011;18176;49.502;11.754;2024-01-30T23:23:12;42.77;;;23.83;;
21183;SDS011;18176;49.502;11.754;2024-01-30T23:27:34;36.47;;;21.83;;
21183;SDS011;18176;49.502;11.754;2024-01-30T23:31:55;41.03;;;23.90;;
21183;SDS011;18176;49.502;11.754;2024-01-30T23:36:15;38.77;;;22.97;;
21183;SDS011;18176;49.502;11.754;2024-01-30T23:40:39;39.73;;;23.90;;
21183;SDS011;18176;49.502;11.754;2024-01-30T23:45:02;42.27;;;24.50;;
21183;SDS011;18176;49.502;11.754;2024-01-30T23:49:24;34.83;;;22.13;;
21183;SDS011;18176;49.502;11.754;2024-01-30T23:53:45;47.13;;;24.67;;
21183;SDS011;18176;49.502;11.754;2024-01-30T23:58:08;39.20;;;23.23;;
